Wetterdaten: Woche 28.01.13 - 03.02.13 (KW5)
Datum Zeit Temp. A. Feuchte A. Luftdruck Regen Wind Richtung Taupunkt Windchill Windben
28.01.2013 00:00 1,7 C 96 % 1004,6 hPa 0,0 l/m 0,9 km/h (0 Bft) S-SW 1,1 C 1,7 C 2,8 km/h (1 Bft)
28.01.2013 01:00 1,4 C 96 % 1004,9 hPa 0,0 l/m 1,4 km/h (1 Bft) SW 0,8 C 1,4 C 4,5 km/h (1 Bft)
28.01.2013 02:00 0,7 C 96 % 1005,3 hPa 0,0 l/m 0,4 km/h (0 Bft) N 0,2 C 0,7 C 2,0 km/h (1 Bft)
28.01.2013 03:00 0,6 C 97 % 1005,7 hPa 0,0 l/m 1,0 km/h (0 Bft) S-SW 0,2 C 0,6 C 3,3 km/h (1 Bft)
28.01.2013 04:00 0,8 C 97 % 1006,3 hPa 0,0 l/m 1,0 km/h (0 Bft) SW 0,4 C 0,8 C 3,5 km/h (1 Bft)
28.01.2013 05:00 0,9 C 96 % 1007,0 hPa 0,0 l/m 1,6 km/h (1 Bft) SW 0,4 C 0,9 C 5,3 km/h (1 Bft)
28.01.2013 06:00 1,4 C 96 % 1007,8 hPa 0,0 l/m 1,8 km/h (1 Bft) S-SW 0,8 C 1,4 C 6,0 km/h (2 Bft)
28.01.2013 07:00 0,8 C 95 % 1008,4 hPa 0,0 l/m 0,6 km/h (0 Bft) S-SW 0,1 C 0,8 C 2,8 km/h (1 Bft)
28.01.2013 08:00 0,7 C 96 % 1009,2 hPa 0,0 l/m 0,3 km/h (0 Bft) N 0,2 C 0,7 C 2,1 km/h (1 Bft)
28.01.2013 09:00 0,8 C 96 % 1009,9 hPa 0,0 l/m 0,1 km/h (0 Bft) N 0,3 C 0,8 C 1,1 km/h (0 Bft)
28.01.2013 10:00 2,5 C 95 % 1010,6 hPa 0,2 l/m 1,1 km/h (1 Bft) S-SW 1,8 C 2,5 C 4,0 km/h (1 Bft)
28.01.2013 11:00 4,4 C 90 % 1011,4 hPa 0,0 l/m 4,1 km/h (1 Bft) SW 2,9 C 4,4 C 11,9 km/h (2 Bft)
28.01.2013 12:00 5,1 C 86 % 1011,7 hPa 0,0 l/m 5,2 km/h (1 Bft) S-SW 2,9 C 5,1 C 12,5 km/h (2 Bft)
28.01.2013 13:00 5,4 C 84 % 1012,0 hPa 0,0 l/m 5,6 km/h (2 Bft) SW 2,9 C 5,3 C 14,5 km/h (3 Bft)
28.01.2013 14:00 5,1 C 85 % 1012,3 hPa 0,0 l/m 5,1 km/h (1 Bft) SW 2,7 C 5,1 C 12,9 km/h (3 Bft)
28.01.2013 15:00 4,8 C 85 % 1012,5 hPa 0,0 l/m 5,4 km/h (1 Bft) S-SW 2,6 C 4,7 C 12,8 km/h (3 Bft)
28.01.2013 16:00 4,2 C 88 % 1012,9 hPa 0,2 l/m 3,6 km/h (1 Bft) SW 2,4 C 4,2 C 7,4 km/h (2 Bft)
28.01.2013 17:00 3,8 C 90 % 1013,2 hPa 0,0 l/m 3,9 km/h (1 Bft) S-SW 2,3 C 3,8 C 9,7 km/h (2 Bft)
28.01.2013 18:00 3,3 C 91 % 1013,4 hPa 0,0 l/m 3,3 km/h (1 Bft) S 2,0 C 3,3 C 7,6 km/h (2 Bft)
28.01.2013 19:00 2,4 C 92 % 1012,8 hPa 0,0 l/m 4,0 km/h (1 Bft) S 1,3 C 2,4 C 8,3 km/h (2 Bft)
28.01.2013 20:00 2,3 C 92 % 1011,8 hPa 0,0 l/m 5,7 km/h (2 Bft) SW 1,1 C 2,2 C 12,0 km/h (2 Bft)
28.01.2013 21:00 2,5 C 92 % 1011,8 hPa 0,0 l/m 6,1 km/h (2 Bft) S-SW 1,3 C 2,2 C 12,5 km/h (2 Bft)
28.01.2013 22:00 2,6 C 91 % 1011,4 hPa 0,0 l/m 7,6 km/h (2 Bft) S-SW 1,2 C 1,5 C 14,4 km/h (3 Bft)
28.01.2013 23:00 2,8 C 88 % 1010,5 hPa 0,0 l/m 8,6 km/h (2 Bft) S 1,1 C 0,8 C 16,5 km/h (3 Bft)
29.01.2013 00:00 2,9 C 87 % 1009,8 hPa 0,4 l/m 10,8 km/h (2 Bft) SW 1,0 C -0,8 C 20,4 km/h (4 Bft)
29.01.2013 01:00 2,6 C 90 % 1007,8 hPa 0,2 l/m 9,3 km/h (2 Bft) S-SO 1,1 C -0,0 C 17,8 km/h (3 Bft)
29.01.2013 02:00 2,5 C 92 % 1006,5 hPa 2,2 l/m 9,8 km/h (2 Bft) S-SW 1,4 C -0,4 C 19,7 km/h (3 Bft)
29.01.2013 03:00 2,9 C 93 % 1005,3 hPa 0,0 l/m 9,0 km/h (2 Bft) S-SO 1,9 C 0,6 C 18,9 km/h (3 Bft)
29.01.2013 04:00 3,4 C 93 % 1004,4 hPa 0,0 l/m 8,5 km/h (2 Bft) W-SW 2,3 C 1,4 C 19,4 km/h (3 Bft)
29.01.2013 05:00 3,8 C 93 % 1003,7 hPa 0,0 l/m 7,8 km/h (2 Bft) S-SW 2,7 C 2,6 C 17,2 km/h (3 Bft)
29.01.2013 06:00 4,1 C 93 % 1003,6 hPa 0,0 l/m 7,8 km/h (2 Bft) SW 3,0 C 2,8 C 15,6 km/h (3 Bft)
29.01.2013 07:00 4,4 C 94 % 1003,5 hPa 0,0 l/m 7,8 km/h (2 Bft) S 3,5 C 3,1 C 16,6 km/h (3 Bft)
29.01.2013 08:00 5,2 C 93 % 1003,4 hPa 0,0 l/m 7,7 km/h (2 Bft) S-SW 4,2 C 4,1 C 15,8 km/h (3 Bft)
29.01.2013 09:00 5,7 C 93 % 1003,8 hPa 0,0 l/m 6,6 km/h (2 Bft) S-SW 4,7 C 4,7 C 12,6 km/h (3 Bft)
29.01.2013 10:00 6,0 C 94 % 1004,3 hPa 0,0 l/m 2,7 km/h (1 Bft) S-SW 5,1 C 5,9 C 5,1 km/h (1 Bft)
29.01.2013 11:00 6,5 C 95 % 1004,8 hPa 0,6 l/m 2,9 km/h (1 Bft) W-SW 5,8 C 6,5 C 5,8 km/h (2 Bft)
29.01.2013 12:00 8,1 C 93 % 1004,6 hPa 0,0 l/m 4,1 km/h (1 Bft) S-SW 7,0 C 8,1 C 10,2 km/h (2 Bft)
29.01.2013 13:00 8,5 C 91 % 1004,8 hPa 0,0 l/m 4,7 km/h (1 Bft) S 7,1 C 8,5 C 7,4 km/h (2 Bft)
29.01.2013 14:00 8,9 C 89 % 1005,2 hPa 0,0 l/m 3,5 km/h (1 Bft) S-SW 7,1 C 8,9 C 10,1 km/h (2 Bft)
29.01.2013 15:00 9,0 C 88 % 1005,7 hPa 0,0 l/m 2,9 km/h (1 Bft) SW 7,2 C 9,0 C 8,6 km/h (2 Bft)
29.01.2013 16:00 8,5 C 89 % 1005,9 hPa 0,0 l/m 2,8 km/h (1 Bft) S-SW 6,7 C 8,5 C 6,8 km/h (2 Bft)
29.01.2013 17:00 6,8 C 93 % 1006,4 hPa 0,0 l/m 1,4 km/h (1 Bft) SW 5,8 C 6,8 C 4,4 km/h (1 Bft)
29.01.2013 18:00 6,5 C 95 % 1006,4 hPa 0,0 l/m 3,7 km/h (1 Bft) S-SW 5,7 C 6,5 C 7,6 km/h (2 Bft)
29.01.2013 19:00 6,4 C 96 % 1006,3 hPa 0,2 l/m 5,0 km/h (1 Bft) S-SW 5,8 C 6,4 C 10,8 km/h (2 Bft)
29.01.2013 20:00 6,6 C 97 % 1005,9 hPa 0,2 l/m 5,7 km/h (2 Bft) S-SW 6,2 C 6,6 C 10,8 km/h (2 Bft)
29.01.2013 21:00 7,0 C 97 % 1005,4 hPa 1,0 l/m 6,0 km/h (2 Bft) S 6,5 C 6,8 C 12,1 km/h (2 Bft)
29.01.2013 22:00 7,4 C 97 % 1004,6 hPa 0,0 l/m 6,0 km/h (2 Bft) S-SW 6,9 C 7,3 C 12,9 km/h (3 Bft)
29.01.2013 23:00 8,1 C 98 % 1004,0 hPa 1,2 l/m 6,7 km/h (2 Bft) S-SW 7,8 C 7,8 C 13,8 km/h (3 Bft)
30.01.2013 00:00 9,1 C 97 % 1003,6 hPa 1,4 l/m 7,5 km/h (2 Bft) SW 8,7 C 8,3 C 15,7 km/h (3 Bft)
30.01.2013 01:00 9,6 C 97 % 1003,2 hPa 0,8 l/m 8,1 km/h (2 Bft) SW 9,1 C 8,4 C 19,7 km/h (3 Bft)
30.01.2013 02:00 10,1 C 96 % 1002,9 hPa 0,0 l/m 7,1 km/h (2 Bft) SW 9,6 C 9,5 C 18,5 km/h (3 Bft)
30.01.2013 03:00 10,7 C 94 % 1002,7 hPa 0,0 l/m 6,3 km/h (2 Bft) S-SO 9,8 C 10,5 C 16,2 km/h (3 Bft)
30.01.2013 04:00 11,0 C 93 % 1002,4 hPa 0,0 l/m 6,5 km/h (2 Bft) S 9,9 C 10,6 C 16,5 km/h (3 Bft)
30.01.2013 05:00 10,9 C 94 % 1002,1 hPa 0,0 l/m 7,9 km/h (2 Bft) S-SW 10,0 C 9,9 C 19,0 km/h (3 Bft)
30.01.2013 06:00 10,8 C 94 % 1001,8 hPa 0,4 l/m 8,6 km/h (2 Bft) S-SW 9,9 C 9,3 C 20,6 km/h (4 Bft)
30.01.2013 07:00 10,6 C 95 % 1001,1 hPa 0,2 l/m 9,9 km/h (2 Bft) S-SW 9,9 C 8,4 C 21,8 km/h (4 Bft)
30.01.2013 08:00 10,6 C 94 % 1000,2 hPa 0,0 l/m 11,4 km/h (2 Bft) SW 9,8 C 7,6 C 24,9 km/h (4 Bft)
30.01.2013 09:00 10,7 C 95 % 999,9 hPa 0,8 l/m 10,3 km/h (2 Bft) S-SW 9,8 C 8,2 C 22,9 km/h (4 Bft)
30.01.2013 10:00 10,8 C 96 % 999,4 hPa 0,6 l/m 10,2 km/h (2 Bft) S 10,2 C 8,4 C 21,8 km/h (4 Bft)
30.01.2013 11:00 11,2 C 96 % 998,9 hPa 1,4 l/m 11,0 km/h (2 Bft) S-SW 10,6 C 8,4 C 24,1 km/h (4 Bft)
30.01.2013 12:00 8,9 C 96 % 1000,3 hPa 3,6 l/m 8,3 km/h (2 Bft) W 8,3 C 6,8 C 17,6 km/h (3 Bft)
30.01.2013 13:00 8,3 C 98 % 1000,4 hPa 0,0 l/m 3,1 km/h (1 Bft) S-SW 7,9 C 8,3 C 7,5 km/h (2 Bft)
30.01.2013 14:00 8,8 C 98 % 1000,8 hPa 0,2 l/m 6,0 km/h (2 Bft) W-NW 8,5 C 8,6 C 13,7 km/h (3 Bft)
30.01.2013 15:00 8,6 C 98 % 1000,6 hPa 0,0 l/m 5,2 km/h (1 Bft) W 8,3 C 8,6 C 13,2 km/h (3 Bft)
30.01.2013 16:00 8,7 C 96 % 1001,1 hPa 0,0 l/m 7,2 km/h (2 Bft) SW 8,1 C 8,0 C 16,6 km/h (3 Bft)
30.01.2013 17:00 8,2 C 94 % 1001,6 hPa 3,2 l/m 7,9 km/h (2 Bft) SW 7,2 C 6,6 C 19,0 km/h (3 Bft)
30.01.2013 18:00 6,5 C 97 % 1002,4 hPa 0,0 l/m 5,8 km/h (2 Bft) W 6,0 C 6,3 C 13,3 km/h (3 Bft)
30.01.2013 19:00 6,0 C 97 % 1003,1 hPa 0,2 l/m 7,6 km/h (2 Bft) W 5,5 C 4,9 C 18,0 km/h (3 Bft)
30.01.2013 20:00 6,2 C 93 % 1003,6 hPa 0,0 l/m 8,0 km/h (2 Bft) W 5,2 C 4,8 C 18,9 km/h (3 Bft)
30.01.2013 21:00 6,8 C 88 % 1003,1 hPa 0,0 l/m 10,9 km/h (2 Bft) W 4,9 C 3,5 C 25,1 km/h (4 Bft)
30.01.2013 22:00 7,7 C 80 % 1003,2 hPa 0,0 l/m 12,9 km/h (3 Bft) SW 4,5 C 3,5 C 29,6 km/h (5 Bft)
30.01.2013 23:00 7,8 C 78 % 1003,6 hPa 0,2 l/m 14,7 km/h (3 Bft) S 4,2 C 2,6 C 32,6 km/h (5 Bft)
31.01.2013 00:00 6,6 C 85 % 1004,8 hPa 0,0 l/m 12,2 km/h (2 Bft) W 4,3 C 2,6 C 30,7 km/h (5 Bft)
31.01.2013 01:00 6,5 C 84 % 1005,8 hPa 0,0 l/m 10,6 km/h (2 Bft) S 4,1 C 3,4 C 24,4 km/h (4 Bft)
31.01.2013 02:00 6,6 C 81 % 1006,4 hPa 0,0 l/m 11,0 km/h (2 Bft) W 3,6 C 3,3 C 26,2 km/h (4 Bft)
31.01.2013 03:00 6,5 C 77 % 1007,1 hPa 0,0 l/m 12,6 km/h (2 Bft) W-NW 2,8 C 2,3 C 29,0 km/h (5 Bft)
31.01.2013 04:00 6,6 C 76 % 1007,2 hPa 0,0 l/m 13,6 km/h (3 Bft) SW 2,6 C 1,7 C 31,9 km/h (5 Bft)
31.01.2013 05:00 6,5 C 77 % 1007,6 hPa 0,0 l/m 13,1 km/h (3 Bft) W-NW 2,8 C 2,0 C 30,5 km/h (5 Bft)
31.01.2013 06:00 6,6 C 76 % 1008,1 hPa 0,0 l/m 14,6 km/h (3 Bft) W 2,6 C 1,3 C 33,4 km/h (5 Bft)
31.01.2013 07:00 6,4 C 77 % 1008,7 hPa 0,0 l/m 12,9 km/h (3 Bft) W 2,6 C 1,9 C 29,1 km/h (5 Bft)
31.01.2013 08:00 6,3 C 78 % 1009,0 hPa 0,0 l/m 13,0 km/h (3 Bft) W 2,7 C 1,7 C 29,4 km/h (5 Bft)
31.01.2013 09:00 6,2 C 80 % 1009,2 hPa 0,0 l/m 10,5 km/h (2 Bft) W 3,0 C 3,1 C 23,6 km/h (4 Bft)
31.01.2013 10:00 6,3 C 79 % 1008,5 hPa 0,0 l/m 9,4 km/h (2 Bft) SW 2,9 C 3,9 C 19,3 km/h (3 Bft)
31.01.2013 11:00 6,9 C 77 % 1007,9 hPa 0,0 l/m 8,7 km/h (2 Bft) S-SW 3,2 C 5,2 C 20,9 km/h (4 Bft)
31.01.2013 12:00 7,3 C 77 % 1007,0 hPa 0,0 l/m 8,9 km/h (2 Bft) S-SW 3,4 C 5,4 C 19,7 km/h (3 Bft)
31.01.2013 13:00 7,0 C 80 % 1005,5 hPa 0,2 l/m 8,1 km/h (2 Bft) SW 3,8 C 5,6 C 17,8 km/h (3 Bft)
31.01.2013 14:00 6,5 C 81 % 1004,4 hPa 0,2 l/m 10,9 km/h (2 Bft) S-SW 3,5 C 3,2 C 25,5 km/h (4 Bft)
31.01.2013 15:00 5,7 C 86 % 1003,8 hPa 0,0 l/m 9,7 km/h (2 Bft) S-SW 3,5 C 3,2 C 20,5 km/h (4 Bft)
31.01.2013 16:00 5,3 C 88 % 1003,2 hPa 0,0 l/m 10,3 km/h (2 Bft) S 3,5 C 2,3 C 24,9 km/h (4 Bft)
31.01.2013 17:00 5,0 C 90 % 1002,6 hPa 0,0 l/m 8,2 km/h (2 Bft) S-SW 3,5 C 3,4 C 19,0 km/h (3 Bft)
31.01.2013 18:00 5,2 C 91 % 1002,6 hPa 0,0 l/m 9,7 km/h (2 Bft) W 3,8 C 2,6 C 23,3 km/h (4 Bft)
31.01.2013 19:00 5,8 C 89 % 1002,9 hPa 0,0 l/m 9,1 km/h (2 Bft) S 4,0 C 3,7 C 22,1 km/h (4 Bft)
31.01.2013 20:00 6,5 C 83 % 1003,1 hPa 0,0 l/m 9,7 km/h (2 Bft) W 3,9 C 4,0 C 22,6 km/h (4 Bft)
31.01.2013 21:00 6,9 C 79 % 1003,5 hPa 0,0 l/m 10,6 km/h (2 Bft) W 3,5 C 3,8 C 25,6 km/h (4 Bft)
31.01.2013 22:00 7,0 C 76 % 1003,7 hPa 0,0 l/m 12,5 km/h (2 Bft) W 3,0 C 2,8 C 28,6 km/h (5 Bft)
31.01.2013 23:00 6,9 C 74 % 1003,9 hPa 0,0 l/m 13,1 km/h (3 Bft) SW 2,7 C 2,4 C 30,3 km/h (5 Bft)
01.02.2013 00:00 6,8 C 75 % 1004,2 hPa 0,0 l/m 12,7 km/h (3 Bft) W 2,6 C 2,5 C 26,5 km/h (4 Bft)
01.02.2013 01:00 6,8 C 76 % 1004,3 hPa 0,0 l/m 11,6 km/h (2 Bft) W 2,8 C 3,0 C 27,4 km/h (5 Bft)
01.02.2013 02:00 6,7 C 77 % 1004,4 hPa 0,0 l/m 11,6 km/h (2 Bft) W 2,9 C 2,9 C 26,9 km/h (4 Bft)
01.02.2013 03:00 6,4 C 80 % 1004,4 hPa 0,0 l/m 10,2 km/h (2 Bft) W 3,2 C 3,5 C 25,7 km/h (4 Bft)
01.02.2013 04:00 6,4 C 80 % 1004,5 hPa 0,0 l/m 9,6 km/h (2 Bft) W-NW 3,3 C 4,0 C 22,8 km/h (4 Bft)
01.02.2013 05:00 6,2 C 82 % 1004,6 hPa 0,0 l/m 8,9 km/h (2 Bft) W-SW 3,4 C 4,3 C 21,2 km/h (4 Bft)
01.02.2013 06:00 6,3 C 83 % 1004,4 hPa 0,0 l/m 8,2 km/h (2 Bft) W 3,6 C 4,8 C 19,2 km/h (3 Bft)
01.02.2013 07:00 6,1 C 84 % 1004,0 hPa 0,0 l/m 8,1 km/h (2 Bft) W-SW 3,6 C 4,7 C 17,6 km/h (3 Bft)
01.02.2013 08:00 5,6 C 86 % 1003,7 hPa 0,0 l/m 5,8 km/h (2 Bft) W 3,4 C 5,5 C 13,3 km/h (3 Bft)
01.02.2013 09:00 5,7 C 87 % 1003,6 hPa 0,0 l/m 5,0 km/h (1 Bft) W-SW 3,7 C 5,7 C 13,6 km/h (3 Bft)
01.02.2013 10:00 6,2 C 86 % 1002,6 hPa 0,0 l/m 5,3 km/h (1 Bft) W-NW 4,0 C 6,2 C 14,0 km/h (3 Bft)
01.02.2013 11:00 6,6 C 85 % 1002,1 hPa 0,0 l/m 5,6 km/h (2 Bft) S-SW 4,2 C 6,6 C 14,0 km/h (3 Bft)
01.02.2013 12:00 6,8 C 85 % 1001,3 hPa 0,0 l/m 3,8 km/h (1 Bft) S 4,4 C 6,8 C 9,7 km/h (2 Bft)
01.02.2013 13:00 7,2 C 84 % 1000,3 hPa 0,0 l/m 4,4 km/h (1 Bft) SW 4,7 C 7,2 C 10,8 km/h (2 Bft)
01.02.2013 14:00 7,0 C 84 % 999,1 hPa 0,0 l/m 4,4 km/h (1 Bft) SW 4,4 C 7,0 C 11,7 km/h (2 Bft)
01.02.2013 15:00 6,3 C 85 % 997,9 hPa 0,0 l/m 2,4 km/h (1 Bft) S-SW 4,0 C 6,3 C 6,5 km/h (2 Bft)
01.02.2013 16:00 5,5 C 91 % 996,6 hPa 0,8 l/m 3,4 km/h (1 Bft) S-SO 4,1 C 5,5 C 7,6 km/h (2 Bft)
01.02.2013 17:00 4,9 C 94 % 995,7 hPa 0,8 l/m 3,6 km/h (1 Bft) S 4,0 C 4,8 C 7,2 km/h (2 Bft)
01.02.2013 18:00 4,5 C 95 % 994,5 hPa 1,4 l/m 1,0 km/h (0 Bft) S-SO 3,8 C 4,5 C 3,2 km/h (1 Bft)
01.02.2013 19:00 4,0 C 94 % 993,5 hPa 0,8 l/m 2,7 km/h (1 Bft) S 3,2 C 4,0 C 7,0 km/h (2 Bft)
01.02.2013 20:00 3,7 C 94 % 992,9 hPa 1,6 l/m 0,6 km/h (0 Bft) SW 2,8 C 3,7 C 2,5 km/h (1 Bft)
01.02.2013 21:00 3,2 C 94 % 991,9 hPa 1,2 l/m 0,8 km/h (0 Bft) W-NW 2,3 C 3,2 C 3,1 km/h (1 Bft)
01.02.2013 22:00 2,6 C 95 % 991,1 hPa 1,0 l/m 3,8 km/h (1 Bft) N-NW 1,8 C 2,6 C 6,0 km/h (2 Bft)
01.02.2013 23:00 2,1 C 95 % 990,9 hPa 0,8 l/m 4,8 km/h (1 Bft) NW 1,4 C 2,1 C 7,1 km/h (2 Bft)
02.02.2013 00:00 1,6 C 95 % 991,1 hPa 0,6 l/m 6,0 km/h (2 Bft) NW 0,9 C 0,3 C 9,1 km/h (2 Bft)
02.02.2013 01:00 0,7 C 96 % 991,3 hPa 0,2 l/m 8,7 km/h (2 Bft) N-NW 0,2 C -1,5 C 13,0 km/h (3 Bft)
02.02.2013 02:00 0,6 C 96 % 991,6 hPa 0,4 l/m 8,7 km/h (2 Bft) NW 0,0 C -1,7 C 13,6 km/h (3 Bft)
02.02.2013 03:00 1,0 C 96 % 992,0 hPa 0,2 l/m 7,3 km/h (2 Bft) NW 0,4 C -0,1 C 12,2 km/h (2 Bft)
02.02.2013 04:00 1,2 C 96 % 992,6 hPa 0,0 l/m 6,0 km/h (2 Bft) NW 0,6 C 1,1 C 11,6 km/h (2 Bft)
02.02.2013 05:00 1,5 C 96 % 993,4 hPa 0,0 l/m 6,1 km/h (2 Bft) W-NW 0,9 C 1,3 C 12,8 km/h (3 Bft)
02.02.2013 06:00 1,7 C 96 % 994,2 hPa 0,2 l/m 5,0 km/h (1 Bft) NW 1,1 C 1,7 C 10,8 km/h (2 Bft)
02.02.2013 07:00 2,0 C 97 % 994,9 hPa 0,0 l/m 4,5 km/h (1 Bft) W-NW 1,5 C 2,0 C 10,2 km/h (2 Bft)
02.02.2013 08:00 2,3 C 97 % 996,1 hPa 0,0 l/m 4,5 km/h (1 Bft) W-NW 1,9 C 2,3 C 10,7 km/h (2 Bft)
02.02.2013 09:00 2,7 C 96 % 997,3 hPa 0,0 l/m 4,7 km/h (1 Bft) W-NW 2,1 C 2,4 C 11,7 km/h (2 Bft)
02.02.2013 10:00 2,6 C 94 % 998,5 hPa 0,0 l/m 10,9 km/h (2 Bft) NW 1,8 C -1,0 C 18,9 km/h (3 Bft)
02.02.2013 11:00 2,0 C 92 % 1000,2 hPa 0,0 l/m 15,0 km/h (3 Bft) NW 0,8 C -4,4 C 23,1 km/h (4 Bft)
02.02.2013 12:00 2,4 C 87 % 1001,1 hPa 0,0 l/m 12,9 km/h (3 Bft) NW 0,4 C -2,8 C 21,0 km/h (4 Bft)
02.02.2013 13:00 2,5 C 81 % 1002,1 hPa 0,0 l/m 12,6 km/h (3 Bft) W-NW -0,5 C -2,4 C 21,8 km/h (4 Bft)
02.02.2013 14:00 2,3 C 77 % 1002,9 hPa 0,0 l/m 15,4 km/h (3 Bft) NW -1,3 C -4,3 C 25,6 km/h (4 Bft)
02.02.2013 15:00 2,4 C 78 % 1003,6 hPa 0,0 l/m 8,8 km/h (2 Bft) NW -1,1 C 0,3 C 16,0 km/h (3 Bft)
02.02.2013 16:00 2,0 C 79 % 1004,3 hPa 0,0 l/m 4,7 km/h (1 Bft) NW -1,3 C 1,8 C 9,9 km/h (2 Bft)
02.02.2013 17:00 1,3 C 78 % 1005,2 hPa 0,0 l/m 5,2 km/h (1 Bft) W-NW -2,0 C 1,1 C 11,0 km/h (2 Bft)
02.02.2013 18:00 0,6 C 81 % 1006,3 hPa 0,0 l/m 1,9 km/h (1 Bft) W -2,3 C 0,6 C 5,6 km/h (2 Bft)
02.02.2013 19:00 -0,1 C 86 % 1007,0 hPa 0,0 l/m 0,9 km/h (0 Bft) W-SW -2,2 C -0,1 C 3,1 km/h (1 Bft)
02.02.2013 20:00 0,3 C 92 % 1007,6 hPa 0,0 l/m 2,3 km/h (1 Bft) W-SW -0,9 C 0,3 C 6,1 km/h (2 Bft)
02.02.2013 21:00 0,3 C 94 % 1007,9 hPa 0,0 l/m 0,8 km/h (0 Bft) W -0,6 C 0,3 C 3,6 km/h (1 Bft)
02.02.2013 22:00 0,4 C 95 % 1008,5 hPa 0,0 l/m 0,1 km/h (0 Bft) N -0,4 C 0,4 C 0,5 km/h (0 Bft)
02.02.2013 23:00 0,2 C 95 % 1009,1 hPa 0,0 l/m 0,2 km/h (0 Bft) N -0,5 C 0,2 C 1,1 km/h (0 Bft)
03.02.2013 00:00 -0,1 C 96 % 1010,1 hPa 0,0 l/m 2,1 km/h (1 Bft) NW -0,7 C -0,1 C 4,8 km/h (1 Bft)
03.02.2013 01:00 -0,5 C 95 % 1010,9 hPa 0,0 l/m 1,2 km/h (1 Bft) W-NW -1,2 C -0,5 C 3,6 km/h (1 Bft)
03.02.2013 02:00 -0,8 C 95 % 1011,7 hPa 0,0 l/m 0,0 km/h (0 Bft) W -1,4 C -0,8 C 0,4 km/h (0 Bft)
03.02.2013 03:00 -0,2 C 95 % 1012,2 hPa 0,0 l/m 1,1 km/h (0 Bft) W -0,9 C -0,2 C 3,6 km/h (1 Bft)
03.02.2013 04:00 0,2 C 95 % 1012,4 hPa 0,0 l/m 1,5 km/h (1 Bft) SW -0,5 C 0,2 C 5,7 km/h (2 Bft)
03.02.2013 05:00 0,6 C 95 % 1012,6 hPa 0,0 l/m 1,7 km/h (1 Bft) W -0,1 C 0,6 C 5,6 km/h (2 Bft)
03.02.2013 06:00 0,9 C 95 % 1012,8 hPa 0,0 l/m 2,6 km/h (1 Bft) W-SW 0,2 C 0,9 C 7,4 km/h (2 Bft)
03.02.2013 07:00 1,2 C 94 % 1013,0 hPa 0,0 l/m 3,6 km/h (1 Bft) W 0,3 C 1,2 C 10,9 km/h (2 Bft)
03.02.2013 08:00 1,4 C 93 % 1013,5 hPa 0,0 l/m 2,7 km/h (1 Bft) W 0,4 C 1,4 C 8,2 km/h (2 Bft)
03.02.2013 09:00 1,6 C 93 % 1013,5 hPa 0,0 l/m 3,7 km/h (1 Bft) W 0,6 C 1,6 C 9,9 km/h (2 Bft)
03.02.2013 10:00 1,9 C 93 % 1013,5 hPa 0,2 l/m 3,8 km/h (1 Bft) SW 0,8 C 1,9 C 9,9 km/h (2 Bft)
03.02.2013 11:00 2,7 C 89 % 1014,0 hPa 0,0 l/m 4,5 km/h (1 Bft) W 1,1 C 2,6 C 13,3 km/h (3 Bft)
03.02.2013 12:00 3,2 C 86 % 1013,5 hPa 0,0 l/m 5,5 km/h (2 Bft) W-SW 1,0 C 3,2 C 13,0 km/h (3 Bft)
03.02.2013 13:00 3,4 C 82 % 1012,3 hPa 0,0 l/m 6,8 km/h (2 Bft) S-SW 0,6 C 2,7 C 15,4 km/h (3 Bft)
03.02.2013 14:00 3,6 C 80 % 1011,0 hPa 0,0 l/m 6,9 km/h (2 Bft) W 0,6 C 2,9 C 15,7 km/h (3 Bft)
03.02.2013 15:00 3,6 C 80 % 1010,1 hPa 0,0 l/m 7,6 km/h (2 Bft) W 0,5 C 2,4 C 17,3 km/h (3 Bft)
03.02.2013 16:00 3,5 C 80 % 1008,7 hPa 0,0 l/m 7,6 km/h (2 Bft) S 0,4 C 2,4 C 18,2 km/h (3 Bft)
03.02.2013 17:00 2,4 C 87 % 1007,8 hPa 0,8 l/m 8,1 km/h (2 Bft) S-SW 0,5 C 0,8 C 19,6 km/h (3 Bft)
03.02.2013 18:00 1,0 C 94 % 1006,6 hPa 1,0 l/m 8,0 km/h (2 Bft) SW 0,1 C -0,5 C 17,6 km/h (3 Bft)
03.02.2013 19:00 0,5 C 95 % 1005,5 hPa 0,2 l/m 6,8 km/h (2 Bft) SW -0,2 C -0,2 C 16,0 km/h (3 Bft)
03.02.2013 20:00 0,5 C 96 % 1005,0 hPa 0,4 l/m 6,9 km/h (2 Bft) W-NW -0,0 C -0,1 C 16,1 km/h (3 Bft)
03.02.2013 21:00 1,2 C 96 % 1004,7 hPa 1,2 l/m 5,8 km/h (2 Bft) S-SW 0,6 C 1,0 C 13,7 km/h (3 Bft)
03.02.2013 22:00 1,9 C 96 % 1004,1 hPa 1,0 l/m 4,9 km/h (1 Bft) W 1,3 C 1,9 C 12,9 km/h (3 Bft)
03.02.2013 23:00 2,8 C 96 % 1003,8 hPa 0,6 l/m 5,1 km/h (1 Bft) W-SW 2,2 C 2,8 C 12,6 km/h (3 Bft)
Min-Datum _ 03.02.13 31.01.13 01.02.13 - 28.01.13 - 02.02.13 02.02.13 28.01.13
_ Min-Zeit 02:20 23:20 23:00 - 00:25 - 18:30 11:05 00:25
Minimum _ -0,9 C 74 % 990,9 hPa - 0,0 km/h (0 Bft) - -2,5 C -7,6 C 0,0 km/h (0 Bft)
Max-Datum _ 30.01.13 29.01.13 03.02.13 30.01.13 30.01.13 - 30.01.13 30.01.13 30.01.13
_ Max-Zeit 11:25 23:10 11:10 12:10 12:10 - 11:55 04:35 12:10
Maximum _ 11,3 C 98 % 1014,1 hPa 3,6 l/m 26,3 km/h
W (4 Bft)
- 10,7 C 11,1 C 43,5 km/h
W-NW (6 Bft)
Durchschnitt _ 4,6 C 90 % 1004,6 hPa #35,2 l/m 6,5 km/h (2 Bft) S-SW 3,0 C 3,4 C 14,6 km/h (3 Bft)